createdAt,value
2023-01-22T00:01:24.628Z,24.98
2023-01-22T00:03:53.876Z,20.73
2023-01-22T00:06:23.549Z,23.25
2023-01-22T00:08:52.506Z,20.00
2023-01-22T00:11:22.256Z,15.95
2023-01-22T00:13:50.928Z,20.25
2023-01-22T00:16:20.382Z,16.83
2023-01-22T00:18:48.735Z,23.73
2023-01-22T00:21:16.877Z,24.35
2023-01-22T00:23:45.228Z,19.10
2023-01-22T00:26:15.475Z,15.35
2023-01-22T00:28:47.506Z,27.80
2023-01-22T00:31:16.943Z,24.25
2023-01-22T00:33:45.992Z,22.25
2023-01-22T00:36:16.952Z,32.75
2023-01-22T00:38:45.801Z,40.40
2023-01-22T00:41:14.953Z,24.70
2023-01-22T00:43:43.926Z,33.85
2023-01-22T00:46:15.518Z,32.70
2023-01-22T00:48:45.326Z,17.50
2023-01-22T00:51:16.313Z,32.45
2023-01-22T00:53:45.144Z,23.88
2023-01-22T00:56:14.848Z,23.63
2023-01-22T00:58:45.944Z,41.53
2023-01-22T01:01:16.617Z,53.28
2023-01-22T01:03:45.017Z,29.83
2023-01-22T01:06:17.719Z,34.20
2023-01-22T01:08:48.427Z,20.58
2023-01-22T01:11:18.802Z,32.88
2023-01-22T01:13:47.065Z,30.75
2023-01-22T01:16:19.592Z,41.10
2023-01-22T01:18:48.785Z,27.27
2023-01-22T01:21:19.255Z,22.42
2023-01-22T01:23:48.097Z,39.28
2023-01-22T01:26:17.752Z,27.70
2023-01-22T01:28:46.533Z,34.70
2023-01-22T01:31:17.664Z,25.67
2023-01-22T01:33:46.729Z,28.55
2023-01-22T01:36:18.262Z,18.15
2023-01-22T01:38:48.557Z,22.48
2023-01-22T01:41:20.426Z,27.73
2023-01-22T01:44:06.758Z,40.87
2023-01-22T01:46:38.121Z,20.83
2023-01-22T01:49:17.279Z,29.50
2023-01-22T01:51:45.610Z,23.90
2023-01-22T01:54:15.539Z,27.05
2023-01-22T01:56:47.486Z,19.50
2023-01-22T01:59:18.221Z,19.63
2023-01-22T05:04:48.262Z,12.70
2023-01-22T05:07:16.633Z,12.82
2023-01-22T05:09:44.825Z,17.25
2023-01-22T05:12:12.961Z,16.42
2023-01-22T05:14:43.181Z,13.45
2023-01-22T05:17:11.503Z,13.93
2023-01-22T05:19:40.293Z,14.43
2023-01-22T05:22:15.003Z,15.52
2023-01-22T05:24:43.302Z,12.63
2023-01-22T05:27:12.535Z,22.00
2023-01-22T05:29:52.069Z,15.15
2023-01-22T05:32:40.404Z,15.35
2023-01-22T05:35:09.357Z,13.95
2023-01-22T05:37:40.768Z,16.55
2023-01-22T05:40:11.013Z,20.10
2023-01-22T05:42:39.161Z,16.35
2023-01-22T05:45:10.189Z,18.40
2023-01-22T05:47:45.714Z,17.92
2023-01-22T05:50:32.623Z,19.83
2023-01-22T05:53:11.396Z,17.05
2023-01-22T05:55:41.636Z,17.90
2023-01-22T05:58:09.912Z,22.30
2023-01-22T06:00:38.193Z,20.10
2023-01-22T06:03:10.411Z,20.08
2023-01-22T06:05:46.838Z,24.10
2023-01-22T06:08:18.387Z,18.83
2023-01-22T06:10:51.846Z,20.15
2023-01-22T06:13:20.592Z,20.48
2023-01-22T06:15:53.716Z,21.58
2023-01-22T06:18:40.452Z,18.88
2023-01-22T06:21:10.281Z,18.27
2023-01-22T06:23:40.377Z,19.90
2023-01-22T06:26:09.461Z,19.45
2023-01-22T06:28:37.560Z,21.73
2023-01-22T06:31:07.687Z,20.73
2023-01-22T06:33:39.796Z,21.25
2023-01-22T06:36:08.761Z,21.25
2023-01-22T06:38:38.363Z,21.98
2023-01-22T06:41:10.881Z,21.38
2023-01-22T06:43:39.223Z,20.02
2023-01-22T06:46:07.412Z,19.00
2023-01-22T06:49:01.579Z,20.55
2023-01-22T06:51:32.031Z,20.20
2023-01-22T06:54:00.510Z,21.13
2023-01-22T06:56:30.427Z,20.65
2023-01-22T06:59:01.036Z,20.42
2023-01-22T07:01:29.312Z,18.65
2023-01-22T07:03:58.103Z,18.77
2023-01-22T07:06:26.307Z,19.65
2023-01-22T07:08:56.372Z,19.67
2023-01-22T07:11:24.505Z,23.83
2023-01-22T07:13:54.041Z,22.67
2023-01-22T07:16:22.722Z,21.13
2023-01-22T07:18:50.977Z,19.75
2023-01-22T07:21:19.073Z,21.55
2023-01-22T07:23:47.216Z,22.10
2023-01-22T07:26:17.193Z,20.98
2023-01-22T07:28:45.414Z,18.90
2023-01-22T07:31:15.583Z,19.30
2023-01-22T07:33:43.967Z,20.48
2023-01-22T07:36:12.008Z,16.80
2023-01-22T07:38:40.139Z,19.33
2023-01-22T07:41:17.124Z,20.40
2023-01-22T07:43:53.205Z,20.52
2023-01-22T07:46:22.959Z,22.08
2023-01-22T07:48:51.262Z,21.33
2023-01-22T07:51:19.936Z,29.17
2023-01-22T07:53:48.148Z,20.77
2023-01-22T07:56:18.035Z,20.55
2023-01-22T07:58:46.277Z,21.10
2023-01-22T08:01:14.589Z,19.50
2023-01-22T08:03:45.154Z,18.35
2023-01-22T08:06:17.025Z,18.45
2023-01-22T08:08:45.413Z,18.77
2023-01-22T08:11:14.281Z,17.85
2023-01-22T08:13:42.654Z,24.63
2023-01-22T08:16:10.815Z,17.25
2023-01-22T08:18:41.188Z,18.80
2023-01-22T08:21:10.619Z,15.07
2023-01-22T08:23:38.775Z,22.10
2023-01-22T08:26:06.948Z,21.95
2023-01-22T08:28:35.056Z,18.92
2023-01-22T08:31:04.589Z,20.55
2023-01-22T08:33:34.192Z,26.00
2023-01-22T08:36:02.428Z,20.92
2023-01-22T08:38:31.932Z,20.73
2023-01-22T08:41:00.733Z,27.42
2023-01-22T08:43:29.900Z,20.35
2023-01-22T08:45:58.195Z,16.38
2023-01-22T08:48:26.475Z,38.55
2023-01-22T08:50:55.136Z,22.30
2023-01-22T08:53:23.315Z,28.00
2023-01-22T08:55:53.138Z,23.02
2023-01-22T08:58:22.143Z,28.05
2023-01-22T09:00:53.142Z,19.08
2023-01-22T09:03:21.575Z,27.42
2023-01-22T09:05:50.871Z,24.33
2023-01-22T09:08:19.776Z,18.65
2023-01-22T09:10:48.537Z,21.77
2023-01-22T09:13:18.022Z,20.65
2023-01-22T09:15:46.497Z,22.00
2023-01-22T09:18:14.667Z,20.55
2023-01-22T09:20:43.155Z,20.70
2023-01-22T09:23:11.257Z,19.75
2023-01-22T09:25:41.495Z,22.42
2023-01-22T09:28:12.169Z,25.38
2023-01-22T09:30:42.795Z,41.78
2023-01-22T09:33:11.152Z,24.05
2023-01-22T09:35:42.164Z,23.55
2023-01-22T09:38:14.730Z,23.52
2023-01-22T09:40:46.566Z,26.48
2023-01-22T09:43:26.762Z,22.63
2023-01-22T09:46:00.302Z,24.40
2023-01-22T09:48:34.856Z,22.45
2023-01-22T09:51:03.523Z,20.98
2023-01-22T09:53:32.167Z,19.77
2023-01-22T09:56:00.952Z,23.95
2023-01-22T09:58:29.284Z,22.23
2023-01-22T10:01:02.710Z,23.30
2023-01-22T10:03:34.900Z,21.70
2023-01-22T10:06:08.127Z,22.77
2023-01-22T10:08:42.189Z,26.20
2023-01-22T10:11:10.906Z,23.77
2023-01-22T10:13:40.726Z,23.10
2023-01-22T10:16:12.541Z,27.50
2023-01-22T10:18:44.764Z,31.37
2023-01-22T10:21:19.684Z,24.98
2023-01-22T10:23:48.851Z,26.05
2023-01-22T10:26:19.079Z,25.17
2023-01-22T10:28:49.712Z,39.65
2023-01-22T10:31:38.214Z,28.90
2023-01-22T10:34:14.315Z,34.53
2023-01-22T10:36:48.512Z,28.13
2023-01-22T10:39:18.358Z,37.22
2023-01-22T10:41:48.510Z,79.63
2023-01-22T10:44:22.979Z,50.28
2023-01-22T10:46:54.683Z,73.45
2023-01-22T10:49:26.003Z,119.00
2023-01-22T10:52:01.892Z,60.75
2023-01-22T10:54:33.416Z,77.72
2023-01-22T10:57:07.422Z,31.58
2023-01-22T10:59:36.102Z,28.35
2023-01-22T11:02:16.966Z,40.65
2023-01-22T11:04:45.227Z,42.45
2023-01-22T11:07:18.819Z,29.27
2023-01-22T11:09:51.348Z,35.08
2023-01-22T11:12:24.804Z,29.05
2023-01-22T11:15:01.689Z,26.30
2023-01-22T11:17:37.731Z,32.85
2023-01-22T11:20:13.911Z,34.90
2023-01-22T11:22:47.351Z,29.38
2023-01-22T11:25:15.739Z,38.10
2023-01-22T11:28:03.059Z,75.22
2023-01-22T11:30:49.808Z,71.35
2023-01-22T11:33:33.834Z,58.90
2023-01-22T11:36:09.855Z,33.60
2023-01-22T11:38:47.792Z,35.88
2023-01-22T11:41:30.219Z,60.55
2023-01-22T11:44:22.998Z,37.30
2023-01-22T11:47:05.855Z,76.68
2023-01-22T11:49:47.381Z,82.85
2023-01-22T11:52:31.021Z,119.88
2023-01-22T11:55:18.281Z,105.05
2023-01-22T11:57:56.324Z,52.95
2023-01-22T12:00:42.908Z,49.35
2023-01-22T12:03:44.713Z,50.92
2023-01-22T12:06:28.797Z,34.60
2023-01-22T12:09:09.098Z,39.15
2023-01-22T12:11:55.010Z,49.15
2023-01-22T12:14:47.219Z,43.35
2023-01-22T12:17:31.679Z,27.60
2023-01-22T12:20:35.259Z,45.35
2023-01-22T12:23:09.983Z,32.63
2023-01-22T12:25:45.037Z,32.67
2023-01-22T12:28:19.646Z,32.28
2023-01-22T12:30:55.072Z,23.40
2023-01-22T12:33:28.271Z,33.85
2023-01-22T12:36:01.447Z,28.33
2023-01-22T12:38:43.425Z,36.15
2023-01-22T12:41:28.345Z,46.78
2023-01-22T12:43:59.107Z,63.50
2023-01-22T12:46:37.407Z,42.58
2023-01-22T12:49:08.114Z,62.20
2023-01-22T12:51:40.004Z,45.17
2023-01-22T12:54:24.220Z,30.63
2023-01-22T12:56:56.593Z,30.45
2023-01-22T12:59:32.972Z,32.05
2023-01-22T13:02:03.012Z,28.85
2023-01-22T13:04:31.978Z,32.15
2023-01-22T13:07:19.457Z,35.33
2023-01-22T13:09:49.642Z,37.63
2023-01-22T13:12:27.869Z,43.60
2023-01-22T13:14:59.306Z,34.88
2023-01-22T13:17:30.593Z,39.28
2023-01-22T13:20:00.716Z,47.35
2023-01-22T13:22:29.436Z,38.95
2023-01-22T13:25:00.346Z,48.95
2023-01-22T13:27:31.073Z,54.22
2023-01-22T13:30:09.321Z,46.22
2023-01-22T13:32:37.547Z,67.75
2023-01-22T13:35:06.934Z,100.20
2023-01-22T13:37:35.865Z,70.82
2023-01-22T13:40:15.192Z,134.65
2023-01-22T13:42:47.043Z,76.32
2023-01-22T13:45:20.381Z,79.87
2023-01-22T13:47:48.657Z,65.97
2023-01-22T13:50:21.565Z,42.22
2023-01-22T13:52:50.793Z,74.97
2023-01-22T13:55:22.490Z,48.60
2023-01-22T13:57:53.236Z,74.00
2023-01-22T14:00:30.790Z,49.63
2023-01-22T14:03:00.107Z,46.58
2023-01-22T14:05:31.028Z,48.65
2023-01-22T14:08:07.332Z,45.53
2023-01-22T14:10:37.762Z,47.17
2023-01-22T14:13:13.920Z,42.58
2023-01-22T14:15:42.815Z,47.58
2023-01-22T14:18:12.195Z,65.63
2023-01-22T14:20:43.200Z,52.45
2023-01-22T14:23:13.756Z,48.05
2023-01-22T14:25:47.364Z,51.05
2023-01-22T14:28:16.234Z,55.30
2023-01-22T14:30:44.590Z,57.95
2023-01-22T14:33:13.769Z,52.58
2023-01-22T14:35:41.947Z,58.03
2023-01-22T14:38:10.110Z,59.88
2023-01-22T14:40:38.259Z,54.50
2023-01-22T14:43:08.057Z,52.03
2023-01-22T14:45:36.240Z,51.92
2023-01-22T14:48:05.075Z,56.28
